Dry Fork, Virginia
Current Conditions -  °F | °C
As of 7:53 AM on Wednesday 22 Oct 2014 (Local Time) from KDAN Reporting Station
Clear Clear  
Wind Chill: 44°   Ceiling: Unl
Heat Index: 47°   Visibility: 10mi
Dew Point: 38°   Wind: 7mph
Humidity: 71%   Direction: 280°W
Pressure: 30"   Gusts: NA
Location:  36.75°N, 79.4°W
Report Text: KDAN 221153Z AUTO 28006KT 10SM CLR 08/03 A3000 RMK AO2 SLP153 60000 T00830033 10117 20067 53014
Loading
Personal Weather Stations






























Interactive Weather Map
Tropical Storm Tracking
New forecast layout! Learn more

10-Day Weather Forecast

Advertisements
Track Severe Weather on mobile